createdAt,value
2022-09-17T00:00:39.304Z,50.01
2022-09-17T00:01:39.351Z,47.43
2022-09-17T00:02:40.100Z,52.64
2022-09-17T00:03:39.324Z,45.80
2022-09-17T00:04:39.392Z,50.72
2022-09-17T00:05:39.316Z,45.79
2022-09-17T00:06:40.264Z,60.04
2022-09-17T00:07:40.338Z,59.16
2022-09-17T00:08:40.775Z,47.49
2022-09-17T00:09:39.396Z,50.87
2022-09-17T00:10:39.350Z,51.89
2022-09-17T00:11:39.280Z,53.41
2022-09-17T00:12:40.052Z,51.83
2022-09-17T00:14:13.247Z,54.97
2022-09-17T00:14:39.139Z,54.38
2022-09-17T00:15:40.794Z,50.99
2022-09-17T00:16:40.092Z,45.53
2022-09-17T00:17:39.281Z,50.52
2022-09-17T00:18:39.346Z,52.00
2022-09-17T00:19:39.298Z,51.39
2022-09-17T00:20:40.116Z,57.25
2022-09-17T00:21:39.827Z,49.72
2022-09-17T00:22:39.149Z,60.11
2022-09-17T00:23:39.961Z,55.70
2022-09-17T00:24:39.270Z,61.02
2022-09-17T00:25:39.307Z,53.02
2022-09-17T00:26:40.122Z,51.84
2022-09-17T00:27:39.184Z,53.53
2022-09-17T00:28:39.168Z,51.19
2022-09-17T00:29:39.166Z,55.04
2022-09-17T00:30:40.071Z,59.32
2022-09-17T00:31:39.242Z,56.13
2022-09-17T00:32:39.125Z,62.65
2022-09-17T00:33:39.028Z,56.29
2022-09-17T00:34:39.580Z,55.61
2022-09-17T00:35:39.784Z,57.33
2022-09-17T00:36:39.828Z,61.15
2022-09-17T00:37:39.048Z,54.21
2022-09-17T00:38:39.065Z,48.88
2022-09-17T00:39:39.080Z,48.35
2022-09-17T00:40:39.162Z,53.03
2022-09-17T00:41:40.316Z,52.61
2022-09-17T00:42:38.989Z,47.98
2022-09-17T00:43:40.316Z,50.97
2022-09-17T00:44:39.871Z,59.79
2022-09-17T00:45:40.081Z,63.03
2022-09-17T00:46:40.191Z,58.60
2022-09-17T00:47:38.999Z,54.28
2022-09-17T00:48:39.954Z,60.16
2022-09-17T00:49:39.865Z,61.12
2022-09-17T00:50:39.866Z,54.31
2022-09-17T00:51:38.977Z,57.76
2022-09-17T00:52:38.946Z,63.47
2022-09-17T00:53:39.018Z,61.19
2022-09-17T00:54:38.934Z,58.72
2022-09-17T00:55:39.005Z,57.78
2022-09-17T00:56:39.055Z,61.78
2022-09-17T00:57:38.954Z,59.20
2022-09-17T00:58:41.295Z,63.71
2022-09-17T00:59:40.574Z,58.71
2022-09-17T01:00:39.596Z,59.84
2022-09-17T01:01:39.664Z,58.55
2022-09-17T01:02:38.975Z,61.66
2022-09-17T01:03:39.918Z,56.22
2022-09-17T01:04:40.598Z,57.14
2022-09-17T01:05:39.825Z,58.98
2022-09-17T01:06:39.969Z,56.64
2022-09-17T01:07:38.911Z,62.51
2022-09-17T01:08:39.590Z,61.13
2022-09-17T01:09:40.097Z,56.99
2022-09-17T01:10:38.792Z,55.89
2022-09-17T01:11:40.079Z,57.36
2022-09-17T01:12:48.609Z,55.53
2022-09-17T01:14:23.799Z,49.05
2022-09-17T01:15:01.793Z,48.06
2022-09-17T01:16:02.083Z,61.04
2022-09-17T01:17:15.090Z,55.66
2022-09-17T01:17:47.116Z,55.54
2022-09-17T01:18:55.172Z,46.36
2022-09-17T01:19:48.612Z,46.82
2022-09-17T01:20:47.121Z,66.86
2022-09-17T01:21:47.721Z,53.45
2022-09-17T01:31:55.235Z,52.02
2022-09-17T01:33:12.011Z,45.45
2022-09-17T01:33:58.010Z,62.26
2022-09-17T01:35:01.387Z,52.60
2022-09-17T01:36:17.398Z,45.84
2022-09-17T01:37:07.790Z,46.15
2022-09-17T01:38:17.505Z,48.49
2022-09-17T01:39:08.604Z,48.90
2022-09-17T01:40:03.698Z,49.97
2022-09-17T01:41:02.994Z,47.17
2022-09-17T01:41:52.986Z,54.74
2022-09-17T01:42:50.221Z,51.89
2022-09-17T01:43:50.985Z,48.59
2022-09-17T01:44:50.172Z,49.02
2022-09-17T02:06:16.125Z,45.98
2022-09-17T02:07:17.054Z,47.87
2022-09-17T02:08:35.272Z,47.28
2022-09-17T02:09:25.999Z,54.15
2022-09-17T02:10:17.992Z,51.71
2022-09-17T02:11:16.600Z,52.14
2022-09-17T02:20:54.325Z,51.02
2022-09-17T02:21:55.424Z,49.78
2022-09-17T02:22:56.383Z,51.39
2022-09-17T02:23:55.441Z,52.78
2022-09-17T02:24:56.269Z,49.89
2022-09-17T02:25:55.458Z,47.75
2022-09-17T02:26:55.523Z,53.23
2022-09-17T02:27:55.499Z,44.65
2022-09-17T02:28:55.429Z,44.62
2022-09-17T02:29:56.037Z,50.81
2022-09-17T02:30:59.320Z,48.74
2022-09-17T02:31:57.028Z,44.76
2022-09-17T02:32:57.277Z,44.88
2022-09-17T02:34:02.775Z,44.88
2022-09-17T02:34:56.471Z,44.69
2022-09-17T02:35:56.817Z,51.54
2022-09-17T02:37:06.272Z,44.66
2022-09-17T02:51:29.953Z,46.47
2022-09-17T02:52:29.943Z,50.11
2022-09-17T02:53:30.373Z,52.30
2022-09-17T02:54:29.861Z,44.77
2022-09-17T02:55:31.219Z,44.74
2022-09-17T02:56:31.120Z,51.59
2022-09-17T02:57:31.018Z,50.46
2022-09-17T02:58:31.176Z,45.37
2022-09-17T02:59:31.072Z,45.21
2022-09-17T03:00:31.093Z,54.38
2022-09-17T03:01:31.092Z,44.85
2022-09-17T03:02:43.165Z,50.88
2022-09-17T03:03:54.077Z,48.68
2022-09-17T03:04:32.718Z,56.03
2022-09-17T03:05:31.900Z,51.40
2022-09-17T03:06:31.944Z,44.76
2022-09-17T03:07:31.068Z,44.68
2022-09-17T03:08:30.992Z,44.86
2022-09-17T03:09:31.609Z,52.64
2022-09-17T03:10:31.654Z,58.36
2022-09-17T03:11:31.951Z,46.07
2022-09-17T03:12:31.464Z,51.38
2022-09-17T03:13:31.049Z,44.97
2022-09-17T03:14:31.876Z,55.19
2022-09-17T03:16:04.074Z,45.36
2022-09-17T03:16:30.827Z,44.85
2022-09-17T03:17:30.812Z,49.83
2022-09-17T03:18:30.798Z,50.62
2022-09-17T03:19:30.779Z,45.08
2022-09-17T03:20:30.776Z,57.92
2022-09-17T03:21:30.793Z,49.38
2022-09-17T03:22:30.732Z,57.58
2022-09-17T03:23:30.789Z,51.06
2022-09-17T03:24:30.829Z,63.39
2022-09-17T03:25:30.750Z,57.34
2022-09-17T03:26:30.841Z,53.98
2022-09-17T03:27:30.802Z,59.64
2022-09-17T03:28:30.767Z,57.63
2022-09-17T03:29:30.726Z,53.97
2022-09-17T03:30:30.716Z,55.75
2022-09-17T03:31:30.711Z,59.88
2022-09-17T03:32:30.684Z,61.83
2022-09-17T03:33:30.752Z,67.91
2022-09-17T03:34:30.733Z,57.71
2022-09-17T03:35:30.726Z,53.15
2022-09-17T03:36:30.696Z,52.78
2022-09-17T03:37:33.083Z,64.01
2022-09-17T03:38:31.764Z,58.15
2022-09-17T03:39:30.634Z,60.30
2022-09-17T03:40:30.790Z,67.62
2022-09-17T03:41:30.713Z,56.63
2022-09-17T03:42:30.641Z,60.58
2022-09-17T03:43:30.603Z,62.24
2022-09-17T03:44:30.626Z,59.10
2022-09-17T03:45:30.632Z,54.11
2022-09-17T03:46:30.655Z,53.01
2022-09-17T04:03:39.748Z,61.46
2022-09-17T04:04:39.741Z,57.58
2022-09-17T04:05:40.868Z,59.53
2022-09-17T04:06:40.844Z,59.48
2022-09-17T04:07:40.855Z,57.15
2022-09-17T04:08:40.841Z,57.12
2022-09-17T04:09:40.899Z,53.99
2022-09-17T04:10:40.877Z,56.51
2022-09-17T04:11:40.842Z,56.57
2022-09-17T04:12:40.821Z,49.04
2022-09-17T04:13:41.825Z,59.17
2022-09-17T04:14:40.854Z,59.88
2022-09-17T04:15:40.901Z,61.28
2022-09-17T04:16:41.887Z,56.42
2022-09-17T04:17:40.794Z,49.99
2022-09-17T04:18:40.841Z,52.80
2022-09-17T04:19:40.797Z,47.53
2022-09-17T04:20:40.777Z,44.85
2022-09-17T04:21:40.759Z,55.61
2022-09-17T04:22:40.708Z,64.02
2022-09-17T04:23:40.717Z,59.64
2022-09-17T04:24:40.720Z,57.32
2022-09-17T04:25:40.689Z,61.96
2022-09-17T04:26:40.728Z,59.65
2022-09-17T04:27:40.715Z,45.91
2022-09-17T04:28:40.687Z,50.80
2022-09-17T04:29:40.662Z,61.01
2022-09-17T04:30:40.754Z,58.74
2022-09-17T04:31:40.710Z,46.11
2022-09-17T04:32:40.676Z,56.04
2022-09-17T04:33:40.635Z,45.23
2022-09-17T04:34:40.720Z,59.39
2022-09-17T04:35:40.635Z,48.26
2022-09-17T04:36:40.643Z,55.19
2022-09-17T04:37:40.642Z,52.08
2022-09-17T04:38:40.624Z,57.77
2022-09-17T04:39:40.647Z,54.15
2022-09-17T04:40:40.676Z,61.47
2022-09-17T04:41:40.600Z,59.29
2022-09-17T04:42:40.579Z,51.02
2022-09-17T04:43:40.567Z,45.02
2022-09-17T04:44:40.586Z,45.28
2022-09-17T04:45:40.579Z,55.92
2022-09-17T04:46:40.663Z,55.10
2022-09-17T04:47:40.542Z,59.04
2022-09-17T04:48:40.533Z,54.42
2022-09-17T04:49:40.542Z,64.86
2022-09-17T04:50:40.636Z,59.08
2022-09-17T04:51:40.519Z,52.53
2022-09-17T04:52:40.521Z,45.03
2022-09-17T04:53:40.509Z,56.33
2022-09-17T04:54:40.489Z,58.47
2022-09-17T04:55:40.539Z,51.63
2022-09-17T04:56:40.465Z,47.85
2022-09-17T04:57:40.462Z,59.49
2022-09-17T04:58:40.455Z,61.91
2022-09-17T04:59:40.482Z,52.21
2022-09-17T05:00:40.517Z,55.08
2022-09-17T05:01:40.543Z,55.05
2022-09-17T05:02:40.437Z,61.08
2022-09-17T05:03:40.446Z,56.86
2022-09-17T05:04:40.410Z,61.93
2022-09-17T05:05:40.424Z,61.27
2022-09-17T05:06:40.533Z,59.40
2022-09-17T05:07:40.407Z,57.40
2022-09-17T05:08:40.386Z,64.13
2022-09-17T05:09:40.393Z,54.15
2022-09-17T05:10:40.373Z,57.30
2022-09-17T05:11:40.361Z,62.84
2022-09-17T05:12:40.371Z,57.51
2022-09-17T05:13:40.348Z,50.52
2022-09-17T05:14:40.329Z,53.05
2022-09-17T05:15:40.476Z,63.36
2022-09-17T05:16:40.330Z,64.69
2022-09-17T05:17:40.365Z,57.90
2022-09-17T05:18:40.303Z,53.96
2022-09-17T05:19:40.317Z,61.75
2022-09-17T05:20:40.324Z,52.02
2022-09-17T05:21:40.274Z,56.92
2022-09-17T05:22:40.371Z,63.57
2022-09-17T05:23:40.272Z,50.80
2022-09-17T05:24:40.263Z,62.15
2022-09-17T05:25:40.243Z,60.52
2022-09-17T05:26:40.220Z,52.52
2022-09-17T05:27:40.274Z,66.45
2022-09-17T05:28:40.268Z,60.81
2022-09-17T05:29:40.233Z,68.70
2022-09-17T05:30:40.214Z,50.05
2022-09-17T05:31:41.241Z,57.07
2022-09-17T05:32:40.204Z,60.79
2022-09-17T05:33:40.190Z,59.04
2022-09-17T05:34:40.151Z,52.96
2022-09-17T05:35:40.176Z,66.95
2022-09-17T05:36:40.188Z,55.01
2022-09-17T05:37:40.153Z,58.27
2022-09-17T05:38:40.214Z,62.21
2022-09-17T05:39:40.174Z,59.82
2022-09-17T05:40:40.134Z,62.82
2022-09-17T05:41:40.102Z,58.57
2022-09-17T05:42:40.104Z,65.90
2022-09-17T05:43:40.086Z,64.25
2022-09-17T05:44:40.106Z,56.03
2022-09-17T05:45:40.087Z,63.74
2022-09-17T05:46:40.138Z,60.81
2022-09-17T05:47:40.086Z,48.85
2022-09-17T05:48:40.055Z,59.57
2022-09-17T05:49:40.067Z,62.75
2022-09-17T05:50:40.049Z,55.62
2022-09-17T05:51:40.040Z,61.21
2022-09-17T05:52:40.033Z,57.15
2022-09-17T05:53:40.037Z,62.93
2022-09-17T05:54:40.109Z,57.42
2022-09-17T05:55:41.002Z,54.82
2022-09-17T05:56:39.988Z,63.18
2022-09-17T05:57:40.996Z,52.37
2022-09-17T05:58:40.001Z,60.84
2022-09-17T05:59:39.963Z,63.59
2022-09-17T06:00:39.986Z,56.16
2022-09-17T06:01:40.000Z,63.74
2022-09-17T06:02:39.979Z,56.31
2022-09-17T06:03:39.941Z,60.05
2022-09-17T06:04:39.917Z,50.95
2022-09-17T06:05:39.917Z,55.85
2022-09-17T06:06:39.901Z,65.26
2022-09-17T06:07:39.900Z,64.65
2022-09-17T06:08:39.898Z,62.24
2022-09-17T06:09:39.890Z,54.13
2022-09-17T06:10:39.985Z,63.09
2022-09-17T06:11:39.895Z,61.88
2022-09-17T06:12:39.876Z,63.33
2022-09-17T06:13:39.884Z,66.30
2022-09-17T06:14:39.874Z,68.62
2022-09-17T06:15:39.855Z,66.24
2022-09-17T06:16:39.881Z,60.21
2022-09-17T06:17:39.843Z,60.38
2022-09-17T06:18:39.843Z,62.35
2022-09-17T06:19:39.814Z,64.96
2022-09-17T06:20:39.827Z,60.26
2022-09-17T06:21:39.826Z,60.04
2022-09-17T06:22:39.792Z,66.85
2022-09-17T06:23:39.791Z,67.23
2022-09-17T06:24:39.781Z,57.15
2022-09-17T06:25:39.791Z,64.82
2022-09-17T06:26:39.854Z,64.31
2022-09-17T06:27:39.760Z,62.61
2022-09-17T06:28:41.861Z,65.70
2022-09-17T06:29:40.737Z,61.78
2022-09-17T06:30:39.775Z,63.77
2022-09-17T06:31:39.791Z,61.62
2022-09-17T06:32:39.713Z,64.12
2022-09-17T06:33:39.733Z,60.37
2022-09-17T06:34:39.713Z,65.06
2022-09-17T06:35:39.734Z,63.42
2022-09-17T06:36:39.763Z,67.33
2022-09-17T06:37:39.687Z,63.28
2022-09-17T06:38:39.674Z,64.70
2022-09-17T06:39:39.667Z,66.28
2022-09-17T06:40:39.738Z,62.07
2022-09-17T06:41:39.670Z,61.68
2022-09-17T06:42:39.726Z,64.80
2022-09-17T06:43:39.653Z,66.31
2022-09-17T06:44:39.609Z,64.98
2022-09-17T06:45:39.611Z,67.87
2022-09-17T06:46:39.638Z,64.85
2022-09-17T06:47:39.605Z,64.85
2022-09-17T06:48:39.619Z,59.07
2022-09-17T06:49:39.580Z,64.20
2022-09-17T06:50:42.804Z,61.97
2022-09-17T06:51:40.571Z,68.43
2022-09-17T06:52:39.612Z,65.47
2022-09-17T06:53:39.570Z,64.97
2022-09-17T06:54:39.553Z,65.07
2022-09-17T06:55:39.555Z,64.73
2022-09-17T06:56:39.567Z,56.66
2022-09-17T06:57:39.653Z,65.63
2022-09-17T06:58:39.600Z,64.81
2022-09-17T06:59:39.832Z,63.28
2022-09-17T07:00:39.676Z,60.35
2022-09-17T07:01:39.560Z,54.22
2022-09-17T07:02:39.534Z,67.88
2022-09-17T07:03:39.541Z,59.31
2022-09-17T07:04:39.495Z,64.85
2022-09-17T07:05:40.100Z,60.63
2022-09-17T07:06:39.516Z,60.29
2022-09-17T07:07:39.438Z,67.20
2022-09-17T07:08:39.681Z,67.17
2022-09-17T07:09:39.615Z,65.42
2022-09-17T07:10:39.430Z,58.44
2022-09-17T07:11:39.504Z,65.86
2022-09-17T07:12:39.476Z,64.39
2022-09-17T07:13:39.423Z,61.65
2022-09-17T07:14:39.553Z,68.38
2022-09-17T07:15:39.462Z,60.92
2022-09-17T07:16:40.917Z,55.59
2022-09-17T07:17:39.421Z,61.47
2022-09-17T07:18:39.379Z,67.97
2022-09-17T07:19:39.382Z,61.97
2022-09-17T07:20:39.367Z,61.95
2022-09-17T07:21:39.443Z,65.03
2022-09-17T07:22:39.341Z,61.97
2022-09-17T07:23:39.359Z,60.92
2022-09-17T07:24:39.401Z,66.24
2022-09-17T07:25:39.348Z,64.43
2022-09-17T07:26:39.312Z,69.43
2022-09-17T07:27:39.374Z,62.33
2022-09-17T07:28:39.386Z,62.65
2022-09-17T07:29:39.303Z,68.05
2022-09-17T07:30:39.382Z,63.82
2022-09-17T07:31:39.428Z,63.77
2022-09-17T07:32:40.027Z,63.76
2022-09-17T07:33:39.293Z,68.78
2022-09-17T07:34:39.360Z,67.63
2022-09-17T07:35:39.297Z,67.67
2022-09-17T07:36:39.239Z,64.39
2022-09-17T07:37:39.274Z,67.70
2022-09-17T07:38:39.254Z,62.89
2022-09-17T07:39:39.227Z,64.57
2022-09-17T07:40:39.243Z,66.24
2022-09-17T07:41:39.213Z,61.06
2022-09-17T07:42:39.240Z,65.25
2022-09-17T07:43:40.230Z,68.85
2022-09-17T07:44:41.065Z,66.23
2022-09-17T07:45:39.170Z,63.28
2022-09-17T07:46:39.263Z,69.36
2022-09-17T07:47:39.156Z,65.62
2022-09-17T07:48:39.198Z,54.87
2022-09-17T07:49:39.152Z,68.65
2022-09-17T07:50:39.172Z,65.70
2022-09-17T07:51:40.517Z,64.36
2022-09-17T07:52:40.138Z,69.16
2022-09-17T07:53:39.169Z,64.77
2022-09-17T07:54:39.165Z,64.86
2022-09-17T07:55:39.117Z,68.58
2022-09-17T07:56:39.113Z,65.93
2022-09-17T07:57:39.075Z,62.43
2022-09-17T07:58:39.084Z,67.37
2022-09-17T07:59:39.108Z,66.36
2022-09-17T08:00:39.069Z,63.54
2022-09-17T08:01:39.243Z,64.63
2022-09-17T08:02:39.287Z,63.60
2022-09-17T08:03:39.039Z,63.99
2022-09-17T08:04:39.051Z,64.62
2022-09-17T08:05:39.076Z,67.29
2022-09-17T08:06:39.113Z,63.44
2022-09-17T08:07:39.026Z,63.55
2022-09-17T08:08:41.383Z,63.79
2022-09-17T08:09:39.009Z,64.02
2022-09-17T08:10:38.992Z,57.78
2022-09-17T08:11:55.078Z,66.45
2022-09-17T08:12:41.913Z,69.16
2022-09-17T08:13:39.011Z,66.41
2022-09-17T08:14:38.952Z,67.33
2022-09-17T08:15:38.972Z,61.83
2022-09-17T08:16:39.074Z,68.40
2022-09-17T08:17:38.989Z,66.65
2022-09-17T08:18:39.036Z,65.51
2022-09-17T08:19:38.939Z,61.28
2022-09-17T08:20:38.974Z,63.92
2022-09-17T08:21:38.970Z,69.00
2022-09-17T08:22:38.950Z,62.41
2022-09-17T08:23:38.890Z,66.29
2022-09-17T08:24:38.888Z,64.93
2022-09-17T08:25:38.860Z,63.66
2022-09-17T08:26:38.854Z,66.16
2022-09-17T08:27:38.902Z,65.66
2022-09-17T08:28:38.875Z,65.27
2022-09-17T08:29:38.887Z,64.58
2022-09-17T08:30:38.841Z,67.67
2022-09-17T08:31:38.937Z,67.55
2022-09-17T08:32:38.854Z,61.26
2022-09-17T08:33:38.814Z,65.26
2022-09-17T08:34:38.903Z,67.22
2022-09-17T08:35:38.829Z,66.32
2022-09-17T08:36:38.826Z,69.14
2022-09-17T08:37:38.789Z,63.94
2022-09-17T08:38:38.826Z,64.44
2022-09-17T08:39:38.774Z,66.00
2022-09-17T08:40:38.916Z,67.86
2022-09-17T08:41:38.759Z,66.36
2022-09-17T08:42:38.775Z,67.33
2022-09-17T08:43:38.783Z,60.40
2022-09-17T08:44:38.714Z,65.88
2022-09-17T08:45:38.722Z,64.88
2022-09-17T08:46:38.767Z,65.50
2022-09-17T08:47:39.695Z,64.14
2022-09-17T08:48:38.680Z,66.30
2022-09-17T08:49:38.697Z,65.49
2022-09-17T08:50:38.792Z,65.66
2022-09-17T08:51:38.682Z,67.43
2022-09-17T08:52:38.664Z,67.55
2022-09-17T08:53:38.637Z,61.89
2022-09-17T08:54:38.645Z,63.65
2022-09-17T08:55:38.653Z,61.11
2022-09-17T08:56:38.705Z,63.02
2022-09-17T08:57:38.646Z,65.39
2022-09-17T08:58:38.586Z,66.34
2022-09-17T08:59:38.625Z,62.77
2022-09-17T09:00:38.598Z,65.57
2022-09-17T09:01:38.738Z,71.75
2022-09-17T09:02:38.828Z,64.06
2022-09-17T09:03:38.581Z,68.74
2022-09-17T09:04:38.610Z,67.20
2022-09-17T09:05:38.587Z,66.95
2022-09-17T09:06:38.649Z,59.17
2022-09-17T09:07:38.534Z,66.60
2022-09-17T09:08:38.581Z,65.38
2022-09-17T09:09:38.582Z,68.06
2022-09-17T09:10:38.530Z,64.60
2022-09-17T09:11:38.578Z,68.83
2022-09-17T09:12:38.484Z,65.93
2022-09-17T09:13:38.543Z,63.94
2022-09-17T09:14:38.512Z,62.78
2022-09-17T09:25:47.983Z,70.71
2022-09-17T09:26:58.718Z,64.96
2022-09-17T09:27:50.162Z,67.06
2022-09-17T10:15:12.321Z,67.32
2022-09-17T10:54:50.916Z,65.81
2022-09-17T10:55:44.567Z,65.17
2022-09-17T10:56:43.589Z,61.37
2022-09-17T10:57:44.530Z,64.70
2022-09-17T10:58:44.293Z,62.89
2022-09-17T10:59:43.516Z,66.72
2022-09-17T11:00:43.578Z,65.79
2022-09-17T11:01:43.731Z,67.21
2022-09-17T11:02:44.847Z,68.76
2022-09-17T12:27:27.769Z,64.51
2022-09-17T12:28:35.587Z,63.70
2022-09-17T12:29:28.836Z,59.05
2022-09-17T12:30:29.798Z,60.96
2022-09-17T12:31:29.812Z,65.92
2022-09-17T12:32:28.908Z,62.08
2022-09-17T12:34:08.770Z,67.69
2022-09-17T12:34:42.301Z,60.14
2022-09-17T12:39:57.616Z,68.39
2022-09-17T12:40:57.535Z,65.83
2022-09-17T12:44:44.164Z,58.17
2022-09-17T12:45:48.585Z,69.61
2022-09-17T12:46:46.661Z,68.18
2022-09-17T12:47:44.162Z,63.61
2022-09-17T12:48:45.391Z,61.15
2022-09-17T12:49:45.422Z,62.77
2022-09-17T12:53:38.392Z,64.22
2022-09-17T12:54:43.082Z,68.46
2022-09-17T12:55:44.988Z,62.73
2022-09-17T12:56:38.382Z,63.20
2022-09-17T12:57:38.389Z,63.30
2022-09-17T12:58:38.353Z,63.96
2022-09-17T12:59:39.578Z,65.80
2022-09-17T13:00:39.671Z,54.75
2022-09-17T13:01:39.618Z,62.60
2022-09-17T13:02:40.685Z,64.07
2022-09-17T13:03:39.567Z,66.00
2022-09-17T13:04:59.953Z,64.31
2022-09-17T13:05:43.238Z,60.46
2022-09-17T13:06:39.637Z,64.49
2022-09-17T13:07:39.593Z,67.15
2022-09-17T13:08:39.503Z,66.33
2022-09-17T13:09:39.523Z,64.55
2022-09-17T13:10:40.298Z,66.65
2022-09-17T13:11:41.223Z,59.85
2022-09-17T13:12:39.625Z,67.15
2022-09-17T13:13:39.453Z,64.31
2022-09-17T13:14:39.495Z,63.20
2022-09-17T13:15:39.579Z,66.92
2022-09-17T13:16:39.537Z,64.33
2022-09-17T13:17:39.428Z,69.21
2022-09-17T13:18:41.795Z,63.83
2022-09-17T13:19:41.449Z,67.72
2022-09-17T13:20:39.441Z,64.95
2022-09-17T13:26:29.349Z,60.15
2022-09-17T13:27:29.975Z,57.42
2022-09-17T13:28:29.323Z,73.09
2022-09-17T13:29:29.267Z,68.28
2022-09-17T13:30:29.242Z,59.67
2022-09-17T13:31:29.408Z,66.15
2022-09-17T13:32:31.197Z,66.11
2022-09-17T13:33:31.199Z,63.24
2022-09-17T13:34:30.545Z,62.68
2022-09-17T13:35:30.539Z,59.42
2022-09-17T13:36:30.409Z,63.80
2022-09-17T13:37:30.362Z,60.35
2022-09-17T13:38:30.398Z,65.43
2022-09-17T13:39:30.450Z,64.75
2022-09-17T13:40:30.486Z,61.74
2022-09-17T13:41:30.427Z,60.62
2022-09-17T13:42:30.365Z,63.87
2022-09-17T13:43:30.404Z,65.10
2022-09-17T13:44:30.449Z,62.51
2022-09-17T13:45:31.059Z,57.86
2022-09-17T13:46:30.360Z,64.93
2022-09-17T13:47:30.409Z,59.65
2022-09-17T13:48:30.272Z,62.51
2022-09-17T13:49:30.339Z,65.35
2022-09-17T13:50:30.252Z,64.69
2022-09-17T13:52:03.403Z,58.70
2022-09-17T13:52:30.234Z,60.93
2022-09-17T13:53:31.385Z,65.53
2022-09-17T13:54:30.311Z,55.77
2022-09-17T13:55:30.283Z,66.63
2022-09-17T13:56:30.280Z,62.13
2022-09-17T13:57:30.252Z,65.18
2022-09-17T13:58:30.224Z,58.84
2022-09-17T13:59:30.201Z,65.67
2022-09-17T14:00:31.216Z,64.17
2022-09-17T14:01:30.229Z,60.05
2022-09-17T14:02:31.099Z,63.60
2022-09-17T14:03:32.739Z,65.25
2022-09-17T14:04:30.179Z,64.14
2022-09-17T14:05:30.220Z,65.16
2022-09-17T14:06:30.284Z,62.46
2022-09-17T14:07:31.070Z,59.71
2022-09-17T14:08:30.224Z,62.12
2022-09-17T14:09:30.309Z,60.49
2022-09-17T14:10:30.190Z,54.07
2022-09-17T14:11:30.111Z,60.43
2022-09-17T14:12:30.223Z,61.71
2022-09-17T14:13:30.094Z,60.84
2022-09-17T14:14:30.095Z,60.81
2022-09-17T14:15:30.121Z,62.74
2022-09-17T14:16:30.218Z,60.23
2022-09-17T14:17:30.196Z,65.55
2022-09-17T14:18:30.085Z,62.92
2022-09-17T14:19:31.421Z,61.37
2022-09-17T14:24:24.436Z,64.61
2022-09-17T14:25:25.531Z,63.50
2022-09-17T14:26:26.237Z,62.32
2022-09-17T14:27:26.247Z,65.09
2022-09-17T14:28:25.550Z,65.05
2022-09-17T14:29:25.687Z,62.27
2022-09-17T14:30:25.571Z,59.64
2022-09-17T14:31:25.576Z,58.99
2022-09-17T14:32:25.658Z,65.50
2022-09-17T14:33:25.646Z,62.44
2022-09-17T14:34:25.497Z,62.70
2022-09-17T14:35:25.544Z,66.32
2022-09-17T14:36:25.645Z,56.95
2022-09-17T14:37:25.502Z,60.86
2022-09-17T14:38:25.707Z,64.78
2022-09-17T14:39:25.609Z,60.42
2022-09-17T14:40:26.247Z,64.19
2022-09-17T14:41:26.249Z,67.40
2022-09-17T14:42:26.727Z,60.45
2022-09-17T14:43:25.506Z,67.51
2022-09-17T14:44:25.383Z,63.47
2022-09-17T14:45:25.462Z,66.38
2022-09-17T14:46:26.563Z,61.33
2022-09-17T14:47:26.192Z,63.73
2022-09-17T14:48:25.544Z,64.19
2022-09-17T14:49:25.429Z,63.33
2022-09-17T14:50:25.399Z,63.49
2022-09-17T14:52:02.543Z,67.49
2022-09-17T14:53:01.085Z,65.39
2022-09-17T14:53:26.401Z,63.31
2022-09-17T14:54:26.416Z,62.74
2022-09-17T14:55:25.651Z,60.45
2022-09-17T14:56:26.555Z,62.19
2022-09-17T14:57:27.109Z,62.61
2022-09-17T14:58:25.648Z,59.24
2022-09-17T14:59:29.127Z,57.09
2022-09-17T15:00:27.095Z,60.42
2022-09-17T15:01:25.672Z,63.24
2022-09-17T15:02:27.120Z,61.20
2022-09-17T15:03:27.569Z,63.16
2022-09-17T15:04:28.085Z,65.14
2022-09-17T15:05:26.582Z,66.99
2022-09-17T15:06:26.525Z,65.38
2022-09-17T15:07:27.621Z,61.38
2022-09-17T15:08:25.407Z,62.86
2022-09-17T15:09:25.455Z,63.43
2022-09-17T15:10:25.503Z,65.47
2022-09-17T15:11:27.156Z,66.03
2022-09-17T15:12:26.573Z,61.08
2022-09-17T15:13:28.605Z,65.22
2022-09-17T15:14:27.089Z,63.75
2022-09-17T15:15:28.071Z,61.53
2022-09-17T15:16:59.686Z,62.75
2022-09-17T15:17:25.900Z,62.64
2022-09-17T15:18:25.259Z,67.91
2022-09-17T15:19:25.168Z,73.42
2022-09-17T15:20:25.229Z,69.02
2022-09-17T15:21:25.246Z,66.36
2022-09-17T15:22:25.385Z,66.87
2022-09-17T15:23:25.201Z,60.77
2022-09-17T15:24:25.402Z,63.06
2022-09-17T15:25:25.349Z,65.28
2022-09-17T15:26:25.248Z,58.85
2022-09-17T15:27:25.224Z,65.75
2022-09-17T15:28:25.139Z,68.20
2022-09-17T15:29:25.315Z,64.42
2022-09-17T15:30:25.207Z,62.32
2022-09-17T15:31:25.278Z,60.24
2022-09-17T15:32:25.308Z,59.47
2022-09-17T15:33:26.174Z,61.41
2022-09-17T15:34:25.123Z,66.43
2022-09-17T15:35:25.130Z,64.27
2022-09-17T15:36:25.211Z,64.98
2022-09-17T15:37:25.139Z,62.19
2022-09-17T15:38:26.134Z,66.34
2022-09-17T15:39:59.415Z,68.70
2022-09-17T15:43:23.062Z,65.55
2022-09-17T15:44:30.141Z,68.74
2022-09-17T15:45:24.613Z,57.09
2022-09-17T15:46:23.089Z,67.25
2022-09-17T15:47:23.072Z,68.17
2022-09-17T15:48:24.195Z,63.26
2022-09-17T15:49:24.378Z,59.79
2022-09-17T15:50:24.246Z,63.38
2022-09-17T15:51:24.225Z,64.90
2022-09-17T15:52:24.210Z,67.11
2022-09-17T15:53:24.235Z,64.61
2022-09-17T15:54:24.163Z,65.37
2022-09-17T15:55:24.865Z,61.88
2022-09-17T15:56:24.098Z,67.04
2022-09-17T15:57:24.152Z,64.62
2022-09-17T15:58:24.159Z,66.65
2022-09-17T15:59:24.147Z,68.77
2022-09-17T16:00:24.178Z,66.18
2022-09-17T16:01:24.193Z,64.24
2022-09-17T16:02:24.228Z,67.67
2022-09-17T16:03:24.092Z,63.06
2022-09-17T16:04:24.837Z,63.22
2022-09-17T16:05:24.114Z,61.83
2022-09-17T16:06:24.070Z,64.01
2022-09-17T16:07:24.070Z,66.37
2022-09-17T16:08:24.035Z,63.53
2022-09-17T16:09:24.057Z,61.50
2022-09-17T16:10:25.400Z,64.64
2022-09-17T16:11:24.152Z,66.11
2022-09-17T16:12:24.060Z,65.53
2022-09-17T16:13:28.450Z,61.64
2022-09-17T16:14:25.883Z,67.61
2022-09-17T16:15:24.088Z,59.80
2022-09-17T16:16:24.062Z,60.74
2022-09-17T16:17:24.082Z,63.81
2022-09-17T16:18:24.642Z,64.69
2022-09-17T16:19:24.116Z,68.70
2022-09-17T16:20:24.080Z,65.43
2022-09-17T16:21:23.975Z,64.30
2022-09-17T16:22:23.986Z,64.20
2022-09-17T16:23:24.043Z,64.94
2022-09-17T16:24:23.967Z,63.14
2022-09-17T16:25:24.614Z,63.44
2022-09-17T16:26:24.120Z,68.17
2022-09-17T16:27:24.121Z,64.59
2022-09-17T16:28:24.083Z,64.09
2022-09-17T16:29:24.126Z,63.31
2022-09-17T16:30:24.615Z,60.15
2022-09-17T16:31:23.968Z,65.77
2022-09-17T16:32:23.904Z,65.14
2022-09-17T16:33:23.947Z,63.56
2022-09-17T16:34:23.915Z,64.33
2022-09-17T16:35:24.794Z,62.30
2022-09-17T16:36:23.818Z,59.18
2022-09-17T16:37:23.878Z,65.66
2022-09-17T16:38:23.932Z,62.98
2022-09-17T16:39:24.051Z,63.81
2022-09-17T16:40:23.960Z,67.73
2022-09-17T16:41:23.811Z,65.76
2022-09-17T16:42:23.812Z,57.74
2022-09-17T16:43:23.853Z,64.50
2022-09-17T16:44:23.873Z,60.96
2022-09-17T16:45:28.714Z,63.49
2022-09-17T16:46:25.950Z,63.89
2022-09-17T16:47:23.846Z,66.57
2022-09-17T16:48:23.882Z,66.88
2022-09-17T16:49:25.706Z,65.08
2022-09-17T16:50:23.881Z,57.21
2022-09-17T16:51:24.386Z,65.15
2022-09-17T16:52:23.831Z,61.98
2022-09-17T16:53:24.047Z,52.56
2022-09-17T16:54:24.459Z,63.52
2022-09-17T16:55:23.790Z,63.18
2022-09-17T16:56:23.996Z,66.34
2022-09-17T16:57:24.494Z,58.26
2022-09-17T16:58:24.033Z,61.14
2022-09-17T16:59:24.267Z,62.91
2022-09-17T17:00:24.558Z,56.67
2022-09-17T17:01:23.890Z,66.44
2022-09-17T17:02:23.747Z,67.27
2022-09-17T17:03:25.205Z,65.18
2022-09-17T17:04:23.898Z,64.23
2022-09-17T17:05:24.475Z,63.83
2022-09-17T17:06:24.028Z,64.85
2022-09-17T17:07:23.807Z,65.21
2022-09-17T17:08:23.825Z,54.45
2022-09-17T17:09:24.582Z,65.06
2022-09-17T17:10:23.947Z,59.20
2022-09-17T17:11:23.722Z,57.48
2022-09-17T17:12:23.800Z,63.56
2022-09-17T17:13:23.537Z,61.97
2022-09-17T17:14:23.597Z,64.03
2022-09-17T17:15:23.659Z,62.84
2022-09-17T17:16:23.577Z,63.01
2022-09-17T17:17:23.632Z,61.23
2022-09-17T17:18:23.544Z,65.72
2022-09-17T17:19:23.579Z,66.36
2022-09-17T17:20:24.287Z,62.26
2022-09-17T17:21:23.625Z,61.74